Terminal Aerodrome Forecast
Issued by NWS

Home | Current Version | Previous Version | Graphics & Text | Print | Product List | Glossary On
Versions: 1 2 3 4 5 6 7 8 9 10 11 12 13 14 15
000
FTUS43 KGRB 200500
TAFATW
TAF
KATW 200525Z 2006/2106 18006KT P6SM SCT050 BKN080
     FM201600 21010G18KT P6SM SCT045 SCT090
     FM202300 19007KT P6SM SCT100=

USA.gov is the U.S. government's official web portal to all federal, state and local government web resources and services.